Terminal Aerodrome Forecast
Issued by NWS

Home | Current Version | Previous Version | Text Only | Print | Product List | Glossary On
Versions: 1 2 3 4 5 6 7 8 9 10 11 12 13 14 15 16 17 18 19 20 21 22 23
000
FTUS41 KGYX 230424 AAA
TAFPSM
TAF AMD
KPSM 230424Z 2304/2324 03017G27KT 3SM -RA BR SCT003 OVC007
      WS020/04050KT
     FM230800 03017G30KT 3SM -RADZ BR OVC004 WS020/04060KT
     FM231400 03017G30KT 2SM RA BR OVC007=

USA.gov is the U.S. government's official web portal to all federal, state and local government web resources and services.